createdAt,value
2019-04-11T00:01:02.404Z,54.80
2019-04-11T00:03:33.516Z,51.97
2019-04-11T00:06:05.244Z,50.73
2019-04-11T00:08:37.129Z,61.93
2019-04-11T00:11:09.347Z,52.07
2019-04-11T00:13:41.466Z,53.83
2019-04-11T00:16:13.077Z,55.63
2019-04-11T00:18:44.926Z,59.07
2019-04-11T00:21:16.972Z,53.30
2019-04-11T00:23:48.346Z,58.93
2019-04-11T00:26:20.184Z,57.80
2019-04-11T00:28:52.008Z,56.30
2019-04-11T00:31:23.020Z,55.17
2019-04-11T00:33:54.906Z,61.20
2019-04-11T00:36:25.546Z,60.40
2019-04-11T00:38:57.677Z,63.83
2019-04-11T00:41:30.791Z,64.17
2019-04-11T00:44:02.887Z,56.80
2019-04-11T00:46:34.210Z,68.43
2019-04-11T00:49:06.221Z,63.97
2019-04-11T00:51:38.061Z,61.47
2019-04-11T00:54:09.221Z,58.93
2019-04-11T00:56:40.076Z,57.50
2019-04-11T00:59:10.711Z,61.60
2019-04-11T01:01:42.960Z,55.33
2019-04-11T01:04:13.757Z,56.57
2019-04-11T01:06:44.590Z,64.93
2019-04-11T01:09:15.878Z,60.80
2019-04-11T01:11:46.453Z,51.40
2019-04-11T01:14:17.408Z,54.80
2019-04-11T01:16:57.256Z,55.97
2019-04-11T01:19:29.383Z,58.87
2019-04-11T01:22:01.251Z,58.30
2019-04-11T01:24:31.820Z,60.77
2019-04-11T01:27:02.890Z,56.07
2019-04-11T01:29:33.605Z,54.07
2019-04-11T01:32:06.876Z,58.93
2019-04-11T01:34:37.452Z,56.97
2019-04-11T01:37:09.186Z,53.87
2019-04-11T01:39:59.357Z,50.73
2019-04-11T01:42:31.240Z,48.80
2019-04-11T01:45:02.956Z,51.43
2019-04-11T01:47:53.271Z,50.20
2019-04-11T01:50:27.192Z,44.80
2019-04-11T01:52:58.437Z,50.93
2019-04-11T01:55:30.090Z,45.27
2019-04-11T01:58:00.574Z,43.93
2019-04-11T02:00:55.240Z,40.23
2019-04-11T02:03:39.737Z,39.00
2019-04-11T02:06:11.948Z,36.10
2019-04-11T02:08:43.769Z,31.23
2019-04-11T02:11:15.063Z,34.00
2019-04-11T02:13:45.629Z,30.17
2019-04-11T02:16:16.777Z,26.27
2019-04-11T02:18:47.773Z,24.40
2019-04-11T02:21:18.356Z,28.43
2019-04-11T02:24:10.556Z,23.00
2019-04-11T02:26:45.240Z,27.90
2019-04-11T02:29:15.400Z,22.47
2019-04-11T02:31:46.691Z,25.07
2019-04-11T02:34:19.366Z,29.90
2019-04-11T02:36:51.350Z,23.83
2019-04-11T02:39:22.866Z,23.73
2019-04-11T02:41:54.923Z,23.50
2019-04-11T02:44:34.909Z,23.97
2019-04-11T02:47:05.589Z,19.77
2019-04-11T02:49:31.329Z,20.77
2019-04-11T02:52:03.808Z,23.70
2019-04-11T02:54:36.672Z,26.40
2019-04-11T02:57:07.956Z,24.47
2019-04-11T02:59:39.050Z,25.83
2019-04-11T03:02:12.971Z,20.10
2019-04-11T03:04:43.952Z,21.73
2019-04-11T03:07:16.575Z,22.73
2019-04-11T03:09:48.842Z,18.53
2019-04-11T03:12:21.413Z,21.87
2019-04-11T03:15:09.371Z,24.63
2019-04-11T03:17:30.717Z,23.27
2019-04-11T03:20:08.913Z,19.97
2019-04-11T03:22:31.985Z,26.83
2019-04-11T03:25:03.702Z,23.90
2019-04-11T03:27:37.127Z,23.13
2019-04-11T03:30:14.562Z,23.13
2019-04-11T03:33:43.662Z,22.17
2019-04-11T03:38:05.158Z,24.47
2019-04-11T03:40:36.204Z,23.07
2019-04-11T03:43:05.773Z,18.80
2019-04-11T03:45:43.456Z,20.17
2019-04-11T03:48:10.896Z,23.93
2019-04-11T03:50:32.160Z,22.07
2019-04-11T03:53:04.735Z,24.50
2019-04-11T03:55:36.922Z,22.53
2019-04-11T03:58:08.448Z,26.30
2019-04-11T04:00:43.814Z,19.63
2019-04-11T04:03:13.478Z,19.17
2019-04-11T04:05:45.240Z,17.50
2019-04-11T04:08:17.811Z,17.87
2019-04-11T04:11:09.726Z,17.87
2019-04-11T04:13:45.552Z,21.53
2019-04-11T04:16:35.870Z,21.27
2019-04-11T04:19:25.107Z,28.63
2019-04-11T04:22:05.060Z,21.93
2019-04-11T04:24:40.003Z,18.63
2019-04-11T04:27:10.305Z,15.47
2019-04-11T04:29:41.444Z,18.47
2019-04-11T04:32:14.289Z,18.63
2019-04-11T04:34:46.388Z,19.07
2019-04-11T04:37:21.393Z,22.13
2019-04-11T04:40:10.713Z,17.73
2019-04-11T04:42:31.511Z,22.00
2019-04-11T04:44:56.102Z,21.17
2019-04-11T04:47:37.284Z,20.90
2019-04-11T04:50:01.430Z,19.67
2019-04-11T04:52:34.365Z,19.40
2019-04-11T04:55:17.263Z,19.20
2019-04-11T04:57:48.723Z,16.27
2019-04-11T05:00:20.828Z,19.13
2019-04-11T05:02:54.699Z,17.27
2019-04-11T05:05:26.794Z,16.83
2019-04-11T05:07:58.353Z,18.33
2019-04-11T05:10:30.757Z,19.67
2019-04-11T05:13:01.175Z,16.90
2019-04-11T05:15:32.432Z,21.40
2019-04-11T05:18:04.123Z,19.40
2019-04-11T05:20:36.308Z,17.20
2019-04-11T05:23:08.446Z,16.13
2019-04-11T05:25:39.133Z,19.60
2019-04-11T05:28:09.938Z,20.80
2019-04-11T05:30:41.842Z,22.03
2019-04-11T05:33:13.534Z,16.20
2019-04-11T05:35:44.479Z,15.60
2019-04-11T05:38:15.368Z,19.23
2019-04-11T05:40:46.679Z,18.00
2019-04-11T05:43:17.800Z,20.60
2019-04-11T05:45:52.429Z,19.33
2019-04-11T05:48:42.993Z,19.97
2019-04-11T05:51:13.507Z,16.17
2019-04-11T05:53:44.058Z,17.53
2019-04-11T05:56:17.767Z,21.13
2019-04-11T05:58:49.349Z,18.67
2019-04-11T06:01:38.741Z,16.17
2019-04-11T06:04:20.984Z,14.60
2019-04-11T06:07:01.527Z,16.77
2019-04-11T06:09:35.956Z,18.63
2019-04-11T06:12:22.763Z,15.60
2019-04-11T06:15:02.088Z,16.33
2019-04-11T06:17:32.830Z,17.60
2019-04-11T06:20:22.062Z,22.47
2019-04-11T06:23:15.932Z,23.00
2019-04-11T06:26:06.653Z,17.10
2019-04-11T06:28:38.092Z,23.33
2019-04-11T06:31:26.606Z,18.20
2019-04-11T06:34:03.415Z,17.03
2019-04-11T06:36:52.926Z,16.53
2019-04-11T06:39:33.535Z,15.00
2019-04-11T06:42:31.860Z,17.23
2019-04-11T06:45:21.850Z,17.23
2019-04-11T06:48:11.600Z,18.97
2019-04-11T06:50:59.667Z,19.93
2019-04-11T06:53:37.405Z,16.80
2019-04-11T06:56:43.320Z,17.83
2019-04-11T06:59:18.439Z,15.33
2019-04-11T07:01:51.053Z,23.60
2019-04-11T07:04:33.695Z,21.40
2019-04-11T07:07:06.589Z,20.67
2019-04-11T07:09:43.056Z,18.17
2019-04-11T07:12:20.722Z,18.27
2019-04-11T07:15:06.632Z,16.17
2019-04-11T07:17:56.654Z,17.57
2019-04-11T07:20:45.795Z,18.13
2019-04-11T07:23:33.764Z,20.67
2019-04-11T07:26:16.675Z,17.03
2019-04-11T07:29:04.868Z,20.60
2019-04-11T07:32:13.614Z,24.63
2019-04-11T07:35:02.309Z,18.27
2019-04-11T07:37:44.714Z,16.80
2019-04-11T07:40:35.141Z,17.13
2019-04-11T07:43:19.042Z,18.27
2019-04-11T07:46:25.439Z,17.93
2019-04-11T07:49:08.347Z,18.00
2019-04-11T07:51:52.780Z,16.77
2019-04-11T07:54:25.772Z,17.23
2019-04-11T07:57:02.297Z,17.33
2019-04-11T08:00:11.320Z,21.90
2019-04-11T08:03:14.458Z,17.40
2019-04-11T08:06:03.271Z,18.43
2019-04-11T08:08:51.832Z,22.13
2019-04-11T08:11:27.628Z,18.77
2019-04-11T08:14:20.143Z,15.97
2019-04-11T08:17:35.534Z,19.10
2019-04-11T08:20:19.413Z,18.27
2019-04-11T08:22:53.025Z,19.13
2019-04-11T08:25:50.584Z,18.63
2019-04-11T08:28:21.751Z,18.17
2019-04-11T08:31:17.301Z,18.60
2019-04-11T08:33:48.932Z,19.43
2019-04-11T08:36:31.684Z,16.70
2019-04-11T08:39:06.892Z,17.10
2019-04-11T08:42:09.406Z,17.50
2019-04-11T08:44:41.889Z,26.23
2019-04-11T08:47:14.660Z,19.67
2019-04-11T08:49:57.027Z,23.23
2019-04-11T08:52:58.798Z,19.53
2019-04-11T08:55:45.599Z,19.80
2019-04-11T08:58:12.122Z,18.70
2019-04-11T09:00:49.288Z,19.73
2019-04-11T09:03:34.798Z,17.93
2019-04-11T09:06:21.148Z,19.23
2019-04-11T09:09:09.503Z,22.57
2019-04-11T09:11:47.012Z,21.33
2019-04-11T09:14:36.064Z,24.90
2019-04-11T09:17:26.177Z,27.53
2019-04-11T09:20:28.065Z,28.70
2019-04-11T09:23:03.723Z,26.50
2019-04-11T09:25:53.744Z,28.50
2019-04-11T09:28:49.476Z,27.87
2019-04-11T09:31:42.562Z,26.10
2019-04-11T09:34:33.602Z,24.20
2019-04-11T09:37:23.855Z,24.47
2019-04-11T09:40:17.560Z,20.50
2019-04-11T09:42:53.368Z,23.60
2019-04-11T09:45:48.695Z,26.83
2019-04-11T09:48:42.093Z,25.83
2019-04-11T09:51:40.104Z,24.53
2019-04-11T09:54:35.111Z,26.43
2019-04-11T09:57:18.557Z,25.10
2019-04-11T09:59:58.216Z,23.10
2019-04-11T10:02:48.362Z,28.40
2019-04-11T10:05:26.416Z,22.03
2019-04-11T10:08:37.373Z,24.10
2019-04-11T10:11:26.168Z,29.53
2019-04-11T10:14:09.152Z,22.67
2019-04-11T10:16:58.231Z,21.07
2019-04-11T10:19:48.424Z,25.97
2019-04-11T10:22:44.037Z,22.37
2019-04-11T10:25:21.202Z,26.43
2019-04-11T10:28:29.500Z,29.37
2019-04-11T10:31:08.937Z,25.73
2019-04-11T10:33:57.678Z,22.93
2019-04-11T10:36:43.395Z,24.07
2019-04-11T10:39:31.814Z,26.37
2019-04-11T10:42:10.588Z,24.33
2019-04-11T10:45:00.299Z,22.87
2019-04-11T10:47:33.287Z,22.63
2019-04-11T10:50:17.521Z,24.50
2019-04-11T10:52:55.092Z,24.50
2019-04-11T10:55:46.085Z,26.63
2019-04-11T10:58:20.809Z,25.60
2019-04-11T11:01:13.163Z,25.43
2019-04-11T11:03:49.412Z,24.53
2019-04-11T11:06:23.996Z,26.27
2019-04-11T11:09:15.220Z,25.33
2019-04-11T11:11:57.237Z,27.50
2019-04-11T11:14:45.271Z,24.47
2019-04-11T11:17:54.652Z,27.67
2019-04-11T11:20:34.650Z,25.83
2019-04-11T11:23:31.671Z,28.03
2019-04-11T11:26:07.033Z,25.03
2019-04-11T11:29:07.377Z,25.83
2019-04-11T11:31:40.886Z,26.43
2019-04-11T11:34:19.263Z,28.53
2019-04-11T11:37:05.319Z,24.63
2019-04-11T11:39:58.919Z,27.30
2019-04-11T11:42:40.631Z,28.27
2019-04-11T11:45:19.517Z,29.57
2019-04-11T11:48:20.853Z,23.97
2019-04-11T11:50:51.508Z,29.53
2019-04-11T11:53:47.499Z,27.70
2019-04-11T11:56:19.957Z,28.13
2019-04-11T11:59:06.919Z,27.77
2019-04-11T12:01:43.250Z,25.47
2019-04-11T12:04:32.936Z,22.60
2019-04-11T12:07:06.029Z,28.90
2019-04-11T12:09:55.855Z,28.97
2019-04-11T12:12:33.047Z,29.77
2019-04-11T12:15:22.772Z,25.97
2019-04-11T12:18:22.533Z,27.47
2019-04-11T12:20:59.394Z,29.57
2019-04-11T12:24:00.727Z,27.77
2019-04-11T12:26:28.804Z,25.03
2019-04-11T12:29:18.579Z,27.30
2019-04-11T12:31:53.180Z,28.60
2019-04-11T12:34:43.965Z,25.70
2019-04-11T12:37:25.053Z,28.77
2019-04-11T12:40:13.343Z,28.10
2019-04-11T12:42:44.444Z,30.77
2019-04-11T12:45:40.177Z,32.47
2019-04-11T12:48:12.106Z,30.77
2019-04-11T12:51:00.408Z,31.37
2019-04-11T12:53:31.532Z,33.40
2019-04-11T12:56:27.007Z,32.47
2019-04-11T12:59:09.630Z,32.17
2019-04-11T13:01:57.947Z,35.97
2019-04-11T13:04:39.442Z,35.60
2019-04-11T13:07:34.732Z,29.40
2019-04-11T13:10:15.965Z,34.30
2019-04-11T13:13:20.661Z,30.70
2019-04-11T13:15:58.651Z,30.10
2019-04-11T13:19:03.298Z,31.93
2019-04-11T13:21:47.000Z,30.93
2019-04-11T13:24:39.722Z,40.30
2019-04-11T13:27:25.751Z,32.47
2019-04-11T13:30:19.132Z,36.60
2019-04-11T13:32:52.317Z,33.73
2019-04-11T13:35:40.594Z,36.70
2019-04-11T13:38:23.472Z,37.70
2019-04-11T13:41:15.887Z,35.97
2019-04-11T13:44:05.193Z,36.23
2019-04-11T13:46:58.072Z,35.80
2019-04-11T13:49:41.761Z,34.60
2019-04-11T13:52:31.259Z,32.43
2019-04-11T13:55:20.305Z,35.47
2019-04-11T13:58:12.983Z,37.83
2019-04-11T14:00:54.476Z,39.33
2019-04-11T14:03:43.914Z,35.73
2019-04-11T14:06:34.078Z,36.60
2019-04-11T14:09:24.327Z,40.93
2019-04-11T14:11:56.671Z,40.33
2019-04-11T14:14:51.848Z,37.90
2019-04-11T14:17:50.131Z,40.10
2019-04-11T14:20:44.095Z,36.90
2019-04-11T14:23:33.488Z,35.90
2019-04-11T14:26:26.232Z,43.43
2019-04-11T14:29:22.187Z,36.13
2019-04-11T14:32:01.665Z,39.13
2019-04-11T14:35:03.151Z,36.33
2019-04-11T14:37:50.539Z,38.73
2019-04-11T14:41:01.890Z,39.47
2019-04-11T14:43:33.641Z,35.03
2019-04-11T14:46:23.132Z,36.00
2019-04-11T14:49:14.372Z,42.97
2019-04-11T14:52:10.609Z,40.40
2019-04-11T14:54:44.371Z,39.63
2019-04-11T14:57:32.073Z,42.50
2019-04-11T15:00:09.048Z,40.77
2019-04-11T15:02:59.134Z,43.20
2019-04-11T15:05:45.291Z,39.00
2019-04-11T15:08:21.387Z,40.87
2019-04-11T15:11:03.224Z,39.97
2019-04-11T15:13:34.288Z,36.77
2019-04-11T15:16:17.744Z,41.63
2019-04-11T15:18:55.434Z,41.43
2019-04-11T15:22:00.183Z,37.23
2019-04-11T15:24:30.768Z,44.27
2019-04-11T15:27:23.991Z,39.17
2019-04-11T15:29:58.768Z,44.53
2019-04-11T15:33:00.541Z,49.03
2019-04-11T15:35:31.047Z,36.63
2019-04-11T15:38:19.587Z,34.90
2019-04-11T15:40:53.535Z,41.20
2019-04-11T15:43:43.242Z,43.07
2019-04-11T15:46:25.211Z,39.40
2019-04-11T15:49:20.423Z,36.27
2019-04-11T15:51:57.603Z,38.77
2019-04-11T15:54:47.084Z,43.03
2019-04-11T15:57:36.918Z,42.47
2019-04-11T16:00:30.761Z,37.70
2019-04-11T16:03:14.699Z,41.30
2019-04-11T16:06:16.801Z,39.97
2019-04-11T16:08:50.768Z,39.27
2019-04-11T16:11:52.855Z,49.83
2019-04-11T16:14:39.144Z,42.40
2019-04-11T16:17:34.833Z,43.70
2019-04-11T16:20:18.309Z,41.87
2019-04-11T16:23:10.047Z,41.17
2019-04-11T16:25:54.652Z,43.63
2019-04-11T16:29:02.592Z,43.47
2019-04-11T16:31:40.188Z,42.63
2019-04-11T16:34:19.907Z,44.57
2019-04-11T16:36:52.858Z,43.63
2019-04-11T16:39:45.279Z,41.47
2019-04-11T16:42:19.092Z,44.83
2019-04-11T16:45:25.000Z,46.50
2019-04-11T16:48:05.273Z,39.50
2019-04-11T16:50:36.767Z,42.97
2019-04-11T16:53:10.670Z,41.87
2019-04-11T16:55:43.096Z,37.10
2019-04-11T16:58:15.166Z,39.43
2019-04-11T17:00:46.269Z,40.27
2019-04-11T17:03:18.232Z,43.07
2019-04-11T17:05:56.465Z,42.73
2019-04-11T17:08:38.340Z,40.53
2019-04-11T17:11:12.540Z,38.50
2019-04-11T17:13:43.495Z,42.97
2019-04-11T17:16:17.022Z,41.03
2019-04-11T17:18:48.730Z,38.03
2019-04-11T17:21:19.771Z,48.87
2019-04-11T17:23:50.420Z,39.43
2019-04-11T17:26:23.304Z,34.17
2019-04-11T17:28:54.774Z,38.00
2019-04-11T17:31:27.334Z,44.93
2019-04-11T17:34:01.415Z,37.83
2019-04-11T17:36:33.523Z,37.37
2019-04-11T17:39:07.044Z,35.67
2019-04-11T17:41:41.848Z,40.87
2019-04-11T17:44:11.547Z,38.93
2019-04-11T17:46:42.202Z,39.00
2019-04-11T17:49:13.227Z,36.33
2019-04-11T17:51:55.268Z,38.17
2019-04-11T17:54:17.980Z,38.73
2019-04-11T17:56:48.972Z,30.20
2019-04-11T17:59:20.528Z,34.63
2019-04-11T18:01:51.064Z,36.77
2019-04-11T18:04:21.983Z,42.10
2019-04-11T18:06:56.617Z,35.43
2019-04-11T18:09:33.171Z,36.80
2019-04-11T18:12:03.723Z,36.63
2019-04-11T18:14:35.015Z,37.20
2019-04-11T18:17:06.149Z,35.37
2019-04-11T18:19:36.855Z,31.67
2019-04-11T18:22:12.859Z,33.57
2019-04-11T18:24:41.329Z,36.67
2019-04-11T18:27:12.996Z,33.80
2019-04-11T18:29:44.069Z,37.73
2019-04-11T18:32:14.487Z,35.80
2019-04-11T18:34:45.147Z,35.27
2019-04-11T18:37:16.348Z,32.07
2019-04-11T18:39:47.867Z,31.63
2019-04-11T18:42:19.409Z,30.10
2019-04-11T18:44:49.992Z,30.87
2019-04-11T18:47:20.633Z,32.10
2019-04-11T18:49:53.263Z,30.27
2019-04-11T18:52:26.512Z,32.53
2019-04-11T18:54:57.824Z,25.63
2019-04-11T18:57:29.112Z,35.67
2019-04-11T19:00:02.378Z,28.80
2019-04-11T19:02:34.475Z,32.97
2019-04-11T19:05:06.302Z,28.97
2019-04-11T19:07:42.823Z,27.93
2019-04-11T19:10:15.014Z,26.17
2019-04-11T19:12:46.451Z,27.50
2019-04-11T19:15:17.793Z,29.17
2019-04-11T19:17:48.766Z,28.80
2019-04-11T19:20:20.439Z,31.47
2019-04-11T19:22:51.395Z,29.70
2019-04-11T19:25:22.586Z,28.73
2019-04-11T19:27:54.382Z,29.27
2019-04-11T19:30:27.014Z,26.30
2019-04-11T19:32:58.161Z,29.70
2019-04-11T19:35:29.280Z,32.13
2019-04-11T19:38:00.240Z,29.97
2019-04-11T19:40:31.157Z,29.87
2019-04-11T19:43:01.779Z,27.20
2019-04-11T19:45:32.833Z,30.90
2019-04-11T19:48:04.299Z,25.67
2019-04-11T19:50:35.431Z,29.17
2019-04-11T19:53:06.471Z,29.77
2019-04-11T19:55:55.508Z,29.37
2019-04-11T19:58:30.300Z,25.47
2019-04-11T20:01:01.251Z,28.03
2019-04-11T20:03:32.311Z,24.43
2019-04-11T20:06:03.578Z,24.60
2019-04-11T20:08:34.209Z,23.23
2019-04-11T20:11:05.753Z,24.67
2019-04-11T20:13:36.681Z,27.53
2019-04-11T20:16:12.276Z,27.33
2019-04-11T20:18:50.400Z,27.30
2019-04-11T20:21:14.797Z,27.40
2019-04-11T20:23:45.778Z,24.60
2019-04-11T20:26:22.303Z,29.03
2019-04-11T20:28:54.026Z,25.23
2019-04-11T20:31:31.585Z,29.80
2019-04-11T20:34:06.880Z,30.90
2019-04-11T20:36:36.360Z,25.00
2019-04-11T20:39:09.317Z,25.50
2019-04-11T20:41:40.264Z,26.97
2019-04-11T20:44:10.828Z,27.20
2019-04-11T20:46:41.459Z,22.17
2019-04-11T20:49:12.453Z,23.20
2019-04-11T20:51:43.073Z,23.03
2019-04-11T20:54:13.665Z,21.90
2019-04-11T20:56:44.190Z,26.63
2019-04-11T20:59:15.294Z,24.57
2019-04-11T21:01:45.891Z,25.13
2019-04-11T21:04:16.448Z,25.00
2019-04-11T21:06:47.515Z,24.93
2019-04-11T21:09:18.460Z,25.00
2019-04-11T21:11:48.980Z,20.97
2019-04-11T21:14:20.042Z,25.30
2019-04-11T21:16:51.030Z,22.10
2019-04-11T21:19:23.273Z,24.67
2019-04-11T21:21:54.408Z,23.73
2019-04-11T21:24:25.588Z,24.03
2019-04-11T21:27:00.845Z,24.60
2019-04-11T21:29:31.872Z,22.43
2019-04-11T21:32:02.904Z,20.43
2019-04-11T21:34:33.966Z,21.50
2019-04-11T21:37:04.740Z,20.87
2019-04-11T21:39:35.275Z,18.33
2019-04-11T21:42:06.654Z,24.73
2019-04-11T21:44:38.315Z,25.13
2019-04-11T21:47:08.952Z,20.87
2019-04-11T21:49:40.059Z,21.23
2019-04-11T21:52:12.266Z,23.73
2019-04-11T21:54:45.312Z,20.30
2019-04-11T21:57:18.436Z,22.23
2019-04-11T21:59:51.541Z,22.53
2019-04-11T22:02:23.996Z,20.63
2019-04-11T22:04:53.907Z,21.97
2019-04-11T22:07:25.727Z,27.10
2019-04-11T22:09:56.277Z,20.93
2019-04-11T22:12:27.948Z,19.57
2019-04-11T22:14:58.970Z,22.43
2019-04-11T22:17:29.516Z,24.07
2019-04-11T22:20:00.464Z,30.13
2019-04-11T22:22:30.919Z,20.93
2019-04-11T22:25:01.322Z,22.77
2019-04-11T22:27:31.767Z,21.27
2019-04-11T22:30:02.338Z,22.47
2019-04-11T22:32:33.667Z,22.50
2019-04-11T22:35:04.395Z,22.80
2019-04-11T22:37:34.908Z,21.03
2019-04-11T22:40:05.895Z,19.47
2019-04-11T22:42:36.395Z,21.63
2019-04-11T22:45:08.358Z,23.30
2019-04-11T22:47:39.996Z,23.73
2019-04-11T22:50:10.741Z,19.30
2019-04-11T22:52:42.327Z,21.40
2019-04-11T22:55:13.455Z,25.10
2019-04-11T22:57:44.376Z,20.57
2019-04-11T23:00:16.543Z,22.37
2019-04-11T23:02:52.667Z,19.77
2019-04-11T23:05:23.223Z,24.20
2019-04-11T23:07:53.736Z,20.23
2019-04-11T23:10:24.221Z,22.23
2019-04-11T23:12:54.792Z,21.73
2019-04-11T23:15:25.883Z,22.87
2019-04-11T23:17:56.804Z,21.60
2019-04-11T23:20:27.307Z,22.83
2019-04-11T23:22:58.286Z,24.47
2019-04-11T23:25:29.271Z,21.47
2019-04-11T23:28:00.697Z,21.40
2019-04-11T23:30:31.714Z,24.53
2019-04-11T23:33:02.234Z,24.07
2019-04-11T23:35:32.740Z,22.63
2019-04-11T23:38:04.016Z,21.10
2019-04-11T23:40:34.924Z,23.07
2019-04-11T23:43:06.287Z,21.10
2019-04-11T23:45:36.838Z,22.83
2019-04-11T23:48:08.010Z,26.40
2019-04-11T23:50:38.512Z,20.43
2019-04-11T23:53:09.036Z,18.73
2019-04-11T23:55:39.566Z,23.07
2019-04-11T23:58:10.071Z,24.03
